Time;durP1;ratioP1;P1;durP2;ratioP2;P2;SDS_P1;SDS_P2;PMS_P1;PMS_P2;Temp;Humidity;BMP_temperature;BMP_pressure;BME280_temperature;BME280_humidity;BME280_pressure;Samples;Min_cycle;Max_cycle;Signal;HPM_P1;HPM_P2
2022/04/25 00:01:57;;;;;;;1.20;0.57;;;19.40;99.90;;;;;;5046257;28;20033;-65
2022/04/25 00:04:24;;;;;;;1.00;0.70;;;19.40;99.90;;;;;;5043792;28;20066;-66
2022/04/25 00:06:51;;;;;;;2.90;1.25;;;19.40;99.90;;;;;;5045934;28;20052;-64
2022/04/25 00:09:18;;;;;;;2.13;1.20;;;19.30;99.90;;;;;;5050150;28;20021;-68
2022/04/25 00:11:45;;;;;;;4.50;1.30;;;19.30;99.90;;;;;;5038246;28;20114;-69
2022/04/25 00:14:14;;;;;;;2.13;1.58;;;19.30;99.90;;;;;;5042564;28;20079;-65
2022/04/25 00:16:41;;;;;;;1.35;0.90;;;19.30;99.90;;;;;;5038636;28;20110;-65
2022/04/25 00:19:08;;;;;;;2.20;0.98;;;19.30;99.90;;;;;;5039762;28;20025;-63
2022/04/25 00:21:35;;;;;;;1.40;0.93;;;19.40;99.90;;;;;;5042268;28;20476;-62
2022/04/25 00:24:02;;;;;;;1.05;0.77;;;19.70;99.90;;;;;;5039527;28;20086;-65
2022/04/25 00:26:29;;;;;;;0.65;0.60;;;20.00;99.90;;;;;;5041563;28;20100;-67
2022/04/25 00:28:56;;;;;;;2.78;0.80;;;20.10;99.90;;;;;;5039266;28;20028;-63
2022/04/25 00:31:23;;;;;;;1.23;0.60;;;20.10;99.90;;;;;;5039858;28;20096;-65
2022/04/25 00:33:50;;;;;;;2.53;0.60;;;19.90;99.90;;;;;;5042047;28;20078;-68
2022/04/25 00:36:17;;;;;;;2.50;1.00;;;20.00;99.90;;;;;;5048433;28;20071;-65
2022/04/25 00:38:44;;;;;;;2.78;1.50;;;20.30;99.90;;;;;;5049110;28;20056;-66
2022/04/25 00:41:11;;;;;;;1.90;1.10;;;20.40;99.90;;;;;;5044547;28;20476;-69
2022/04/25 00:43:38;;;;;;;1.73;1.20;;;20.60;99.90;;;;;;5025258;28;20526;-62
2022/04/25 00:46:05;;;;;;;3.97;1.10;;;20.60;99.90;;;;;;5048603;28;20122;-67
2022/04/25 00:48:32;;;;;;;3.45;1.20;;;20.60;99.90;;;;;;5047621;28;20166;-64
2022/04/25 00:50:59;;;;;;;0.40;0.40;;;20.90;99.90;;;;;;5039438;28;20025;-63
2022/04/25 00:53:26;;;;;;;3.15;1.50;;;20.90;99.90;;;;;;5037906;28;20032;-66
2022/04/25 00:55:54;;;;;;;1.80;1.30;;;21.20;99.90;;;;;;5052239;28;20736;-68
2022/04/25 00:58:21;;;;;;;3.85;1.30;;;21.40;99.90;;;;;;5047163;28;20073;-64
2022/04/25 01:00:48;;;;;;;2.30;1.10;;;21.70;99.90;;;;;;5045218;28;20806;-64
2022/04/25 01:03:15;;;;;;;2.83;1.92;;;22.00;99.90;;;;;;5052159;28;20470;-63
2022/04/25 01:05:42;;;;;;;1.67;1.20;;;22.30;99.90;;;;;;5051899;28;20021;-69
2022/04/25 01:08:08;;;;;;;1.83;1.20;;;22.50;99.90;;;;;;5045040;28;20021;-66
2022/04/25 01:10:36;;;;;;;0.77;0.65;;;22.50;99.90;;;;;;5051929;28;20032;-67
2022/04/25 01:13:03;;;;;;;0.82;0.43;;;22.40;99.90;;;;;;5050680;28;20066;-66
2022/04/25 01:15:31;;;;;;;1.25;1.08;;;22.30;99.90;;;;;;5047171;28;20033;-67
2022/04/25 01:17:58;;;;;;;3.88;1.45;;;22.10;99.90;;;;;;5043085;28;20517;-66
2022/04/25 01:20:25;;;;;;;0.52;0.52;;;21.80;99.90;;;;;;5029945;28;20329;-67
2022/04/25 01:27:15;;;;;;;1.85;0.80;;;21.60;99.90;;;;;;5049135;28;20055;-67
2022/04/25 01:28:33;;;;;;;2.80;0.82;;;21.80;99.90;;;;;;5047134;28;20347;-69
2022/04/25 01:31:00;;;;;;;3.03;0.95;;;21.90;99.90;;;;;;5034786;28;20044;-66
2022/04/25 01:33:27;;;;;;;1.52;1.08;;;22.00;99.90;;;;;;5047272;28;20040;-68
2022/04/25 01:35:54;;;;;;;3.28;1.02;;;21.90;99.90;;;;;;5043580;28;20291;-66
2022/04/25 01:38:21;;;;;;;1.63;0.90;;;21.90;99.90;;;;;;5047872;28;20056;-66
2022/04/25 01:40:48;;;;;;;1.73;1.10;;;22.00;99.90;;;;;;5053389;28;20049;-67
2022/04/25 01:43:15;;;;;;;0.98;0.80;;;22.20;99.90;;;;;;5053037;28;20518;-67
2022/04/25 01:45:42;;;;;;;0.88;0.57;;;22.20;99.90;;;;;;5049479;28;20039;-67
2022/04/25 01:48:09;;;;;;;1.27;0.47;;;22.40;99.90;;;;;;5047603;28;20060;-66
2022/04/25 01:50:36;;;;;;;0.88;0.32;;;22.40;99.90;;;;;;5038638;28;20061;-66
2022/04/25 01:53:03;;;;;;;3.20;1.27;;;22.40;99.90;;;;;;5042790;28;20056;-67
2022/04/25 01:55:30;;;;;;;0.80;0.40;;;22.40;99.90;;;;;;5042697;28;20165;-63
2022/04/25 01:57:57;;;;;;;2.95;0.93;;;22.20;99.90;;;;;;5040227;28;20036;-66
2022/04/25 02:00:27;;;;;;;1.30;0.50;;;22.30;99.90;;;;;;5044028;28;20052;-65
2022/04/25 02:02:55;;;;;;;1.45;0.90;;;22.50;99.90;;;;;;5043082;28;20049;-63
2022/04/25 02:05:22;;;;;;;1.77;0.80;;;22.40;99.90;;;;;;5043412;28;20446;-65
2022/04/25 02:07:48;;;;;;;0.60;0.40;;;22.50;99.90;;;;;;5041726;28;20025;-68
2022/04/25 02:10:16;;;;;;;1.00;0.50;;;22.60;99.90;;;;;;5043833;28;20025;-64
2022/04/25 02:12:45;;;;;;;2.40;0.80;;;22.80;99.90;;;;;;5043073;28;20029;-65
2022/04/25 02:15:13;;;;;;;2.10;0.68;;;22.80;99.90;;;;;;5042394;28;20029;-65
2022/04/25 02:17:44;;;;;;;2.85;0.63;;;22.80;99.90;;;;;;5046593;28;20028;-65
2022/04/25 02:20:13;;;;;;;1.60;0.57;;;22.50;99.90;;;;;;5043041;28;20060;-67
2022/04/25 02:22:40;;;;;;;1.55;0.55;;;22.40;99.90;;;;;;5044559;28;20556;-68
2022/04/25 02:25:09;;;;;;;1.73;0.52;;;22.30;99.90;;;;;;5027456;28;20033;-68
2022/04/25 02:27:36;;;;;;;2.40;0.52;;;22.10;99.90;;;;;;5047024;28;20024;-67
2022/04/25 02:30:04;;;;;;;1.35;0.82;;;21.90;99.90;;;;;;5047052;28;20025;-64
2022/04/25 02:32:31;;;;;;;2.47;0.73;;;22.00;99.90;;;;;;5049466;28;20383;-66
2022/04/25 02:34:59;;;;;;;1.75;0.73;;;22.20;99.90;;;;;;5044048;28;20052;-69
2022/04/25 02:37:26;;;;;;;1.20;0.55;;;22.30;99.90;;;;;;5045190;28;20091;-66
2022/04/25 02:39:53;;;;;;;0.60;0.50;;;22.40;99.90;;;;;;5047406;28;20079;-67
2022/04/25 02:42:20;;;;;;;0.98;0.52;;;22.60;99.90;;;;;;5045668;28;20021;-65
2022/04/25 02:44:48;;;;;;;3.67;0.60;;;22.50;99.90;;;;;;5045977;28;20028;-65
2022/04/25 02:47:15;;;;;;;2.13;0.77;;;22.40;99.90;;;;;;5046893;28;20026;-68
2022/04/25 02:49:42;;;;;;;3.55;1.73;;;22.30;99.90;;;;;;5047274;28;20052;-66
2022/04/25 02:52:09;;;;;;;2.85;1.73;;;22.00;99.90;;;;;;5046462;28;20586;-67
2022/04/25 02:54:36;;;;;;;2.75;1.20;;;21.80;99.90;;;;;;5046266;28;20490;-68
2022/04/25 02:57:04;;;;;;;2.20;1.30;;;21.50;99.90;;;;;;5046220;28;20542;-67
2022/04/25 02:59:31;;;;;;;1.27;0.90;;;21.50;99.90;;;;;;5044998;28;20057;-65
2022/04/25 03:01:59;;;;;;;1.38;0.70;;;21.40;99.90;;;;;;5049400;28;20063;-67
2022/04/25 03:04:26;;;;;;;1.83;0.60;;;21.40;99.90;;;;;;5046952;28;20538;-65
2022/04/25 03:06:54;;;;;;;1.25;0.70;;;21.40;99.90;;;;;;5046190;28;20024;-66
2022/04/25 03:09:21;;;;;;;1.70;0.70;;;21.20;99.90;;;;;;5045073;28;20029;-65
2022/04/25 03:11:50;;;;;;;1.88;0.68;;;21.10;99.90;;;;;;5041590;28;20112;-67
2022/04/25 03:14:17;;;;;;;2.90;1.10;;;21.10;99.90;;;;;;5043153;28;20063;-67
2022/04/25 03:16:44;;;;;;;1.10;0.70;;;21.00;99.90;;;;;;5042043;28;20100;-68
2022/04/25 03:19:11;;;;;;;1.10;0.63;;;21.00;99.90;;;;;;5040607;28;20053;-67
2022/04/25 03:21:38;;;;;;;1.90;0.85;;;21.10;99.90;;;;;;5042966;28;20494;-67
2022/04/25 03:24:05;;;;;;;1.30;0.75;;;21.10;99.90;;;;;;5041860;28;20044;-66
2022/04/25 03:26:32;;;;;;;1.70;0.80;;;21.10;99.90;;;;;;5041268;28;21457;-67
2022/04/25 03:28:59;;;;;;;1.45;0.63;;;21.00;99.90;;;;;;5043295;28;20055;-64
2022/04/25 03:31:26;;;;;;;1.45;0.68;;;20.90;99.90;;;;;;5043831;28;20077;-64
2022/04/25 03:33:53;;;;;;;1.58;0.75;;;20.80;99.90;;;;;;5039371;28;20027;-68
2022/04/25 03:36:20;;;;;;;0.90;0.65;;;20.90;99.90;;;;;;5037990;28;20683;-67
2022/04/25 03:38:47;;;;;;;1.13;0.73;;;20.90;99.90;;;;;;5021248;28;20814;-69
2022/04/25 03:41:14;;;;;;;2.95;0.98;;;21.00;99.90;;;;;;4687921;28;10000138;-66
2022/04/25 03:43:41;;;;;;;1.80;0.70;;;21.00;99.90;;;;;;5037352;28;20414;-65
2022/04/25 03:46:08;;;;;;;1.45;0.80;;;20.90;99.90;;;;;;5037322;28;20112;-67
2022/04/25 03:48:35;;;;;;;1.48;0.80;;;21.00;99.90;;;;;;5038487;28;20029;-69
2022/04/25 03:51:02;;;;;;;2.30;1.08;;;21.00;99.90;;;;;;5038104;28;20029;-67
2022/04/25 03:53:29;;;;;;;3.88;2.00;;;21.20;99.90;;;;;;5037413;28;20025;-67
2022/04/25 03:58:41;;;;;;;6.28;4.65;;;21.30;99.90;;;;;;5037832;28;20040;-67
2022/04/25 04:01:08;;;;;;;2.47;1.20;;;21.30;99.90;;;;;;4687532;28;9999745;-69
2022/04/25 04:03:36;;;;;;;5.57;3.58;;;21.30;99.90;;;;;;5033997;28;20017;-69
2022/04/25 04:06:04;;;;;;;5.20;2.60;;;21.20;99.90;;;;;;5035807;28;20060;-69
2022/04/25 04:08:31;;;;;;;4.53;1.88;;;21.30;99.90;;;;;;5035953;28;20016;-66
2022/04/25 04:10:58;;;;;;;5.00;3.97;;;21.30;99.90;;;;;;5036161;28;20075;-70
2022/04/25 04:13:25;;;;;;;3.45;1.27;;;21.60;99.90;;;;;;5039876;28;20056;-69
2022/04/25 04:15:53;;;;;;;2.08;1.10;;;22.00;99.90;;;;;;5039286;28;20409;-71
2022/04/25 04:18:21;;;;;;;1.73;0.90;;;22.40;99.90;;;;;;5040456;28;20029;-72
2022/04/25 04:20:47;;;;;;;2.20;1.17;;;22.30;99.90;;;;;;5038454;28;20153;-71
2022/04/25 04:23:14;;;;;;;2.03;1.02;;;22.30;99.90;;;;;;5039657;28;20372;-69
2022/04/25 04:25:41;;;;;;;2.50;1.20;;;22.20;99.90;;;;;;5038637;28;20020;-70
2022/04/25 04:28:09;;;;;;;3.75;1.20;;;22.30;99.90;;;;;;5038497;28;20021;-66
2022/04/25 04:30:36;;;;;;;2.05;1.00;;;22.30;99.90;;;;;;5038987;28;20445;-67
2022/04/25 04:33:05;;;;;;;1.73;1.02;;;22.40;99.90;;;;;;5036407;28;20116;-71
2022/04/25 04:38:17;;;;;;;1.05;0.95;;;22.30;99.90;;;;;;5039765;28;20605;-66
2022/04/25 04:40:44;;;;;;;2.03;0.90;;;22.40;99.90;;;;;;5037309;28;20025;-71
2022/04/25 04:43:11;;;;;;;2.15;1.77;;;22.60;99.90;;;;;;5040393;28;20021;-70
2022/04/25 04:45:38;;;;;;;2.25;1.90;;;22.80;99.90;;;;;;5039380;28;20024;-72
2022/04/25 04:48:05;;;;;;;1.52;1.30;;;23.30;99.90;;;;;;5039102;28;20528;-72
2022/04/25 04:50:32;;;;;;;2.08;0.85;;;23.60;99.90;;;;;;5041973;28;20490;-66
2022/04/25 04:53:01;;;;;;;2.10;1.00;;;23.40;99.90;;;;;;5039833;28;20016;-67
2022/04/25 04:55:29;;;;;;;1.40;0.90;;;23.50;99.90;;;;;;5021163;28;20381;-69
2022/04/25 04:57:56;;;;;;;2.38;0.90;;;23.40;99.90;;;;;;5038086;28;20027;-65
2022/04/25 05:00:23;;;;;;;1.77;0.95;;;23.40;99.90;;;;;;5038032;28;20481;-70
2022/04/25 05:02:50;;;;;;;1.83;1.05;;;23.50;99.90;;;;;;5039544;28;20558;-70
2022/04/25 05:05:18;;;;;;;3.72;0.80;;;23.30;99.90;;;;;;5041302;28;20028;-70
2022/04/25 05:07:45;;;;;;;1.38;0.80;;;23.40;99.90;;;;;;5052448;28;20402;-70
2022/04/25 05:10:12;;;;;;;2.00;0.90;;;23.30;99.90;;;;;;5040281;28;20630;-70
2022/04/25 05:12:50;;;;;;;1.60;0.85;;;23.00;99.90;;;;;;5036912;28;20028;-66
2022/04/25 05:15:18;;;;;;;1.25;0.80;;;22.80;99.90;;;;;;5038617;28;20027;-70
2022/04/25 05:17:50;;;;;;;1.92;0.90;;;22.70;99.90;;;;;;5046524;28;20449;-67
2022/04/25 05:20:18;;;;;;;2.35;1.00;;;22.50;99.90;;;;;;5039365;28;20108;-70
2022/04/25 05:22:47;;;;;;;2.75;1.08;;;22.30;99.90;;;;;;5038459;28;20116;-71
2022/04/25 05:25:16;;;;;;;2.40;0.88;;;22.10;99.90;;;;;;5037163;28;20311;-66
2022/04/25 05:27:45;;;;;;;2.08;0.82;;;22.00;99.90;;;;;;5020617;28;20029;-67
2022/04/25 05:30:14;;;;;;;2.78;0.90;;;21.90;99.90;;;;;;5037500;28;20025;-68
2022/04/25 05:32:41;;;;;;;1.35;0.80;;;21.70;99.90;;;;;;5036864;28;20029;-65
2022/04/25 05:35:09;;;;;;;2.05;0.88;;;21.50;99.90;;;;;;5020954;28;20029;-67
2022/04/25 05:37:37;;;;;;;3.00;1.33;;;21.40;99.90;;;;;;5039047;28;20214;-67
2022/04/25 05:40:06;;;;;;;2.55;1.05;;;21.40;99.90;;;;;;5036685;28;20505;-66
2022/04/25 05:42:33;;;;;;;1.48;0.70;;;21.40;99.90;;;;;;5035264;28;20064;-64
2022/04/25 05:45:04;;;;;;;0.60;0.50;;;21.30;99.90;;;;;;5036128;28;20113;-67
2022/04/25 05:47:33;;;;;;;1.20;0.80;;;21.30;99.90;;;;;;5037924;28;20421;-71
2022/04/25 05:52:50;;;;;;;2.30;1.00;;;21.30;99.90;;;;;;5037220;28;20540;-66
2022/04/25 05:55:17;;;;;;;1.88;1.05;;;21.30;99.90;;;;;;5036548;28;20450;-65
2022/04/25 05:57:44;;;;;;;2.72;2.05;;;21.30;99.90;;;;;;5038716;28;20082;-65
2022/04/25 06:00:14;;;;;;;1.45;1.00;;;21.30;99.90;;;;;;5037968;28;20427;-65
2022/04/25 06:02:42;;;;;;;1.38;1.00;;;21.30;99.90;;;;;;5041834;28;20115;-68
2022/04/25 06:05:10;;;;;;;1.77;0.90;;;21.40;99.90;;;;;;5040472;28;20473;-67
2022/04/25 06:07:41;;;;;;;2.50;1.60;;;21.40;99.90;;;;;;5040619;28;20029;-69
2022/04/25 06:10:09;;;;;;;3.20;1.30;;;21.40;99.90;;;;;;5041065;28;20032;-66
2022/04/25 06:12:49;;;;;;;3.90;1.50;;;21.60;99.90;;;;;;5041002;28;20490;-70
2022/04/25 06:15:27;;;;;;;2.92;1.38;;;21.50;99.90;;;;;;5041605;28;20029;-68
2022/04/25 06:17:55;;;;;;;2.30;1.17;;;21.50;99.90;;;;;;5021308;28;20045;-65
2022/04/25 06:20:22;;;;;;;2.78;1.00;;;21.30;99.90;;;;;;5039448;28;20458;-67
2022/04/25 06:23:02;;;;;;;4.00;1.10;;;21.20;99.90;;;;;;5039670;28;20125;-65
2022/04/25 06:25:30;;;;;;;3.92;1.08;;;21.10;99.90;;;;;;5039285;28;20210;-69
2022/04/25 06:28:00;;;;;;;2.53;0.98;;;21.10;99.90;;;;;;5040976;28;20265;-71
2022/04/25 06:30:29;;;;;;;2.05;0.95;;;21.00;99.90;;;;;;5039536;28;20032;-68
2022/04/25 06:32:57;;;;;;;1.95;0.63;;;21.00;99.90;;;;;;5040120;28;20044;-68
2022/04/25 06:35:25;;;;;;;1.83;0.77;;;21.00;99.90;;;;;;5040071;28;20159;-67
2022/04/25 06:37:51;;;;;;;2.30;1.05;;;21.10;99.90;;;;;;5040321;28;20454;-68
2022/04/25 06:40:20;;;;;;;1.20;0.90;;;21.00;99.90;;;;;;5037411;28;20324;-68
2022/04/25 06:42:47;;;;;;;2.50;1.40;;;21.00;99.90;;;;;;5040860;28;20368;-67
2022/04/25 06:45:16;;;;;;;2.15;1.15;;;20.80;99.90;;;;;;5037720;28;20040;-64
2022/04/25 06:47:43;;;;;;;2.55;1.63;;;20.70;99.90;;;;;;5039901;28;20043;-68
2022/04/25 06:50:11;;;;;;;2.30;1.05;;;20.60;99.90;;;;;;5038058;28;20025;-64
2022/04/25 06:52:38;;;;;;;2.45;1.00;;;20.60;99.90;;;;;;5038300;28;20035;-64
2022/04/25 06:55:05;;;;;;;1.02;0.70;;;20.50;99.90;;;;;;5038957;28;20028;-67
2022/04/25 06:57:36;;;;;;;1.42;0.63;;;20.50;99.90;;;;;;5038463;28;20039;-67
2022/04/25 07:00:11;;;;;;;2.45;1.40;;;20.40;99.90;;;;;;5038931;28;20033;-65
2022/04/25 07:02:39;;;;;;;2.05;0.70;;;20.30;99.90;;;;;;5039911;28;20067;-68
2022/04/25 07:05:06;;;;;;;3.22;1.13;;;20.20;99.90;;;;;;5038014;28;20102;-68
2022/04/25 07:07:34;;;;;;;5.15;3.05;;;20.20;99.90;;;;;;5038989;28;20113;-68
2022/04/25 07:10:01;;;;;;;0.90;0.88;;;20.00;99.90;;;;;;5039247;28;20036;-65
2022/04/25 07:12:28;;;;;;;3.90;1.02;;;19.90;99.90;;;;;;5021236;28;20029;-68
2022/04/25 07:14:55;;;;;;;3.80;1.35;;;19.60;99.90;;;;;;5037455;28;20633;-64
2022/04/25 07:17:22;;;;;;;1.67;1.05;;;19.30;99.90;;;;;;5037344;28;20082;-66
2022/04/25 07:19:49;;;;;;;5.22;3.50;;;19.10;99.90;;;;;;5037809;28;20233;-67
2022/04/25 07:30:34;;;;;;;2.03;1.35;;;18.60;99.90;;;;;;5034152;28;20502;-70
2022/04/25 07:33:02;;;;;;;2.75;1.05;;;18.50;99.90;;;;;;5039222;28;20142;-66
2022/04/25 07:35:29;;;;;;;1.80;1.25;;;18.40;99.90;;;;;;5042347;28;20438;-65
2022/04/25 07:37:56;;;;;;;2.22;1.02;;;18.50;99.90;;;;;;5025515;28;20135;-62
2022/04/25 07:40:24;;;;;;;1.67;0.80;;;18.70;99.90;;;;;;5035686;28;20482;-60
2022/04/25 07:42:51;;;;;;;1.63;0.90;;;18.70;99.90;;;;;;5036469;28;20025;-63
2022/04/25 07:45:18;;;;;;;1.30;0.90;;;18.80;99.90;;;;;;5036936;28;20037;-62
2022/04/25 07:47:45;;;;;;;1.95;0.90;;;19.00;99.90;;;;;;5035954;28;20021;-61
2022/04/25 07:50:14;;;;;;;3.08;1.30;;;19.00;99.90;;;;;;5035493;28;20234;-65
2022/04/25 07:52:41;;;;;;;2.95;1.15;;;18.90;99.90;;;;;;5033086;28;20033;-70
2022/04/25 07:55:09;;;;;;;2.42;1.63;;;18.70;99.90;;;;;;5034286;28;20025;-60
2022/04/25 07:57:36;;;;;;;4.63;1.55;;;18.60;99.90;;;;;;5036373;28;20339;-61
2022/04/25 08:00:06;;;;;;;3.63;1.67;;;18.40;99.90;;;;;;5036476;28;20040;-63
2022/04/25 08:02:33;;;;;;;1.17;0.85;;;18.20;99.90;;;;;;5036062;28;20029;-67
2022/04/25 08:05:00;;;;;;;1.92;0.95;;;18.10;99.90;;;;;;5034698;28;20025;-61
2022/04/25 08:07:28;;;;;;;3.85;1.08;;;18.00;99.90;;;;;;5038870;28;20025;-64
2022/04/25 08:09:55;;;;;;;2.28;1.05;;;17.90;99.90;;;;;;5035590;28;20021;-63
2022/04/25 08:18:01;;;;;;;2.83;1.25;;;17.70;99.90;;;;;;5035579;28;20051;-63
2022/04/25 08:20:37;;;;;;;2.45;1.35;;;17.60;99.90;;;;;;5034614;28;20613;-64
2022/04/25 08:23:11;;;;;;;4.55;1.08;;;17.70;99.90;;;;;;5034548;28;20106;-64
2022/04/25 08:25:39;;;;;;;2.25;0.90;;;17.60;99.90;;;;;;5033358;28;20072;-61
2022/04/25 08:28:07;;;;;;;2.33;0.95;;;17.50;99.90;;;;;;5032218;28;20017;-66
2022/04/25 08:30:35;;;;;;;1.55;1.08;;;17.60;99.90;;;;;;5030612;28;20658;-61
2022/04/25 08:33:02;;;;;;;2.00;1.05;;;17.60;99.90;;;;;;5040228;28;20070;-63
2022/04/25 08:35:29;;;;;;;1.58;0.80;;;18.00;99.90;;;;;;5047204;28;20461;-64
2022/04/25 08:37:56;;;;;;;0.98;0.70;;;18.10;99.90;;;;;;5040904;28;20048;-63
2022/04/25 08:40:25;;;;;;;2.40;1.20;;;18.00;99.90;;;;;;5032735;28;20118;-63
2022/04/25 08:42:56;;;;;;;5.78;3.97;;;17.80;99.90;;;;;;5042971;28;20056;-63
2022/04/25 08:45:24;;;;;;;5.05;1.90;;;17.60;99.90;;;;;;5038119;28;20115;-63
2022/04/25 08:47:55;;;;;;;2.13;1.38;;;17.60;99.90;;;;;;5034212;28;20079;-63
2022/04/25 08:50:23;;;;;;;4.57;1.90;;;17.60;99.90;;;;;;5035931;28;20029;-64
2022/04/25 08:52:52;;;;;;;4.05;1.80;;;17.70;99.90;;;;;;5041203;28;20036;-63
2022/04/25 08:55:19;;;;;;;4.00;2.72;;;17.80;99.90;;;;;;5034017;28;20025;-62
2022/04/25 08:57:48;;;;;;;5.63;5.00;;;18.00;99.90;;;;;;5035181;28;20086;-62
2022/04/25 09:00:16;;;;;;;8.80;5.93;;;18.10;99.90;;;;;;5033374;28;20032;-65
2022/04/25 09:02:49;;;;;;;4.75;1.70;;;18.10;99.90;;;;;;5036309;28;20390;-64
2022/04/25 09:05:16;;;;;;;2.97;1.67;;;18.00;99.90;;;;;;5033560;28;20029;-65
2022/04/25 09:07:44;;;;;;;1.75;1.02;;;18.00;99.90;;;;;;5032560;28;20104;-71
2022/04/25 09:10:16;;;;;;;3.53;1.63;;;17.80;99.90;;;;;;5033017;28;20640;-62
2022/04/25 09:12:48;;;;;;;2.53;1.83;;;17.80;99.90;;;;;;5037312;28;20028;-66
2022/04/25 09:15:20;;;;;;;4.38;1.27;;;17.80;99.90;;;;;;5039507;28;20256;-63
2022/04/25 09:17:47;;;;;;;3.28;1.00;;;17.80;99.90;;;;;;5038716;28;20392;-63
2022/04/25 09:20:14;;;;;;;2.42;0.82;;;17.80;99.90;;;;;;5032975;28;20020;-68
2022/04/25 09:22:42;;;;;;;2.25;1.25;;;17.70;99.90;;;;;;5043310;28;20033;-63
2022/04/25 09:25:15;;;;;;;1.23;0.80;;;17.60;99.90;;;;;;5041548;28;20023;-67
2022/04/25 09:27:43;;;;;;;2.40;0.82;;;17.50;99.90;;;;;;5045587;28;20524;-71
2022/04/25 09:30:21;;;;;;;2.55;1.10;;;17.40;99.90;;;;;;5037124;28;20032;-68
2022/04/25 09:32:54;;;;;;;3.78;1.20;;;17.30;99.90;;;;;;5042638;28;20109;-69
2022/04/25 09:42:14;;;;;;;2.78;1.48;;;17.20;99.90;;;;;;5007120;28;20137;-66
2022/04/25 09:45:00;;;;;;;2.88;1.40;;;17.10;99.90;;;;;;4993861;28;20033;-67
2022/04/25 09:47:36;;;;;;;2.92;1.38;;;17.10;99.90;;;;;;5002368;28;20029;-62
2022/04/25 09:50:13;;;;;;;3.85;1.42;;;17.00;99.90;;;;;;5006461;28;20025;-67
2022/04/25 09:53:02;;;;;;;2.00;1.30;;;16.90;99.90;;;;;;5005444;28;20116;-65
2022/04/25 09:55:47;;;;;;;3.60;2.22;;;16.90;99.90;;;;;;5008525;28;20030;-65
2022/04/25 09:58:22;;;;;;;2.85;2.17;;;16.80;99.90;;;;;;4996944;28;20392;-65
2022/04/25 10:00:53;;;;;;;5.35;2.03;;;16.70;99.90;;;;;;5001384;28;20026;-66
2022/04/25 10:03:34;;;;;;;3.83;1.70;;;16.60;99.90;;;;;;5002958;28;20053;-65
2022/04/25 10:06:04;;;;;;;5.47;2.35;;;16.60;99.90;;;;;;5004166;28;20476;-67
2022/04/25 10:08:35;;;;;;;4.03;2.53;;;16.60;99.90;;;;;;5004053;28;20028;-64
2022/04/25 10:11:10;;;;;;;6.35;3.30;;;16.70;99.90;;;;;;5004033;28;20026;-67
2022/04/25 10:13:38;;;;;;;3.03;2.42;;;16.60;99.90;;;;;;5005723;28;20052;-66
2022/04/25 10:16:05;;;;;;;4.07;2.70;;;16.50;99.90;;;;;;5002658;28;20448;-68
2022/04/25 10:18:32;;;;;;;4.25;2.65;;;16.50;99.90;;;;;;5002196;28;20119;-68
2022/04/25 10:21:00;;;;;;;7.35;3.00;;;16.40;99.90;;;;;;5004741;28;20026;-69
2022/04/25 10:23:28;;;;;;;4.30;2.50;;;16.30;99.90;;;;;;5004202;28;20287;-66
2022/04/25 10:26:02;;;;;;;3.45;2.60;;;16.20;99.90;;;;;;5002462;28;20116;-64
2022/04/25 10:29:10;;;;;;;4.55;2.67;;;16.10;99.90;;;;;;5021661;28;20033;-68
2022/04/25 10:31:41;;;;;;;3.17;2.45;;;16.10;99.90;;;;;;5009260;28;20539;-64
2022/04/25 10:34:09;;;;;;;4.38;3.42;;;15.90;99.90;;;;;;5005433;28;20707;-68
2022/04/25 10:39:29;;;;;;;3.88;2.70;;;15.90;99.90;;;;;;5006114;28;20741;-68
2022/04/25 10:44:44;;;;;;;3.83;1.90;;;15.70;99.90;;;;;;5005095;28;20041;-68
2022/04/25 10:47:16;;;;;;;4.15;2.20;;;15.60;99.90;;;;;;5004851;28;20033;-67
2022/04/25 10:50:06;;;;;;;2.65;1.80;;;15.50;99.90;;;;;;5013869;28;20123;-64
2022/04/25 10:55:33;;;;;;;4.15;1.77;;;15.40;99.90;;;;;;5006392;28;20064;-65
2022/04/25 10:58:03;;;;;;;3.80;2.20;;;15.30;99.90;;;;;;5010618;28;20117;-64
2022/04/25 11:03:12;;;;;;;5.13;3.08;;;15.30;99.90;;;;;;5004709;28;20038;-67
2022/04/25 11:05:41;;;;;;;3.88;2.78;;;15.30;99.90;;;;;;5005153;28;20022;-64
2022/04/25 11:08:19;;;;;;;7.07;4.07;;;15.30;99.90;;;;;;5007853;28;20056;-65
2022/04/25 11:11:03;;;;;;;4.53;2.70;;;15.30;99.90;;;;;;5008055;28;20105;-66
2022/04/25 11:13:50;;;;;;;4.93;3.10;;;15.40;99.90;;;;;;5002724;28;20025;-65
2022/04/25 11:16:21;;;;;;;8.40;6.03;;;15.30;99.90;;;;;;4928950;29;20071;-63
2022/04/25 11:19:21;;;;;;;8.02;5.10;;;15.50;99.90;;;;;;4924479;29;20039;-65
2022/04/25 11:21:55;;;;;;;6.28;4.25;;;15.40;99.90;;;;;;4914994;29;20396;-63
2022/04/25 11:24:38;;;;;;;6.25;3.38;;;15.40;99.90;;;;;;4932595;29;20247;-64
2022/04/25 11:27:14;;;;;;;8.02;6.43;;;15.30;99.90;;;;;;4932940;29;20043;-63
2022/04/25 11:29:47;;;;;;;10.00;5.55;;;15.30;99.90;;;;;;4926914;29;20024;-64
2022/04/25 11:32:35;;;;;;;5.97;4.22;;;15.30;99.90;;;;;;4928166;29;20027;-67
2022/04/25 11:35:03;;;;;;;6.40;3.97;;;15.20;99.90;;;;;;4931501;29;20122;-67
2022/04/25 11:37:32;;;;;;;4.38;3.55;;;15.20;99.90;;;;;;4931938;29;20055;-65
2022/04/25 11:40:00;;;;;;;5.68;3.55;;;15.20;99.90;;;;;;4946439;28;20798;-65
2022/04/25 11:42:29;;;;;;;7.82;4.07;;;15.10;99.90;;;;;;4945635;29;20031;-65
2022/04/25 11:44:58;;;;;;;5.45;3.78;;;15.10;99.90;;;;;;4946833;28;20035;-65
2022/04/25 11:47:25;;;;;;;6.28;4.00;;;15.10;99.90;;;;;;4946031;29;20126;-63
2022/04/25 11:50:11;;;;;;;5.60;4.18;;;15.10;99.90;;;;;;4946557;28;20031;-65
2022/04/25 11:52:51;;;;;;;5.40;3.90;;;15.00;99.90;;;;;;4960100;28;20029;-65
2022/04/25 11:55:30;;;;;;;6.70;4.15;;;15.10;99.90;;;;;;5026567;28;20319;-63
2022/04/25 11:57:57;;;;;;;6.63;3.95;;;15.00;99.90;;;;;;5025806;28;20021;-65
2022/04/25 12:00:24;;;;;;;6.35;4.20;;;15.00;99.90;;;;;;5023471;28;20029;-65
2022/04/25 12:02:51;;;;;;;6.85;4.50;;;14.90;99.90;;;;;;5023295;28;20124;-65
2022/04/25 12:05:32;;;;;;;6.95;4.15;;;14.90;99.90;;;;;;5025538;28;20107;-63
2022/04/25 12:16:18;;;;;;;7.15;4.28;;;14.80;99.90;;;;;;5021922;28;20029;-64
2022/04/25 12:18:52;;;;;;;6.40;4.15;;;14.70;99.90;;;;;;5096287;27;20376;-65
2022/04/25 12:21:21;;;;;;;7.18;4.20;;;14.60;99.90;;;;;;5090621;28;20021;-67
2022/04/25 12:23:55;;;;;;;5.68;3.75;;;14.60;99.90;;;;;;5089946;28;20375;-63
2022/04/25 12:26:32;;;;;;;6.68;3.78;;;14.50;99.90;;;;;;5082687;28;20762;-64
2022/04/25 12:29:08;;;;;;;5.47;3.28;;;14.50;99.90;;;;;;5082669;28;20024;-65
2022/04/25 12:31:47;;;;;;;5.18;3.83;;;14.50;99.90;;;;;;5090606;28;20052;-64
2022/04/25 12:34:16;;;;;;;5.90;4.10;;;14.50;99.90;;;;;;5076948;28;20013;-63
2022/04/25 12:37:00;;;;;;;5.78;3.30;;;14.40;99.90;;;;;;5083636;28;20596;-64
2022/04/25 12:39:27;;;;;;;4.80;3.35;;;14.40;99.90;;;;;;5087884;28;20017;-65
2022/04/25 12:41:57;;;;;;;4.18;3.30;;;14.40;99.90;;;;;;5083209;28;20032;-65
2022/04/25 12:44:27;;;;;;;5.43;2.83;;;14.40;99.90;;;;;;5082265;28;20027;-65
2022/04/25 12:47:08;;;;;;;10.15;3.22;;;14.30;99.90;;;;;;5084873;28;20032;-65
2022/04/25 12:49:43;;;;;;;5.53;3.22;;;14.30;99.90;;;;;;5074925;28;20064;-63
2022/04/25 12:52:16;;;;;;;5.75;3.95;;;14.20;99.90;;;;;;5083500;28;20016;-63
2022/04/25 12:54:43;;;;;;;6.10;3.85;;;14.20;99.90;;;;;;5090335;28;20284;-64
2022/04/25 12:57:24;;;;;;;8.13;4.75;;;14.20;99.90;;;;;;5086257;28;20028;-64
2022/04/25 12:59:54;;;;;;;6.90;4.38;;;14.20;99.90;;;;;;5088045;28;20090;-64
2022/04/25 13:02:23;;;;;;;5.60;4.10;;;14.20;99.90;;;;;;5083023;28;20047;-68
2022/04/25 13:04:52;;;;;;;5.47;4.18;;;14.20;99.90;;;;;;5082583;28;20085;-65
2022/04/25 13:07:39;;;;;;;7.28;4.47;;;14.20;99.90;;;;;;5082710;28;20082;-65
2022/04/25 13:10:12;;;;;;;7.88;5.00;;;14.10;99.90;;;;;;5083219;28;20024;-65
2022/04/25 13:12:42;;;;;;;9.43;5.05;;;14.20;99.90;;;;;;5089444;28;20034;-62
2022/04/25 13:15:14;;;;;;;7.50;4.25;;;14.20;99.90;;;;;;5082011;28;20021;-68
2022/04/25 13:17:42;;;;;;;6.88;5.28;;;14.20;99.90;;;;;;5075297;28;20117;-62
2022/04/25 13:20:10;;;;;;;8.38;5.68;;;14.30;99.90;;;;;;5090193;28;20103;-61
2022/04/25 13:22:37;;;;;;;10.85;5.47;;;14.30;99.90;;;;;;5082557;28;20052;-64
2022/04/25 13:25:06;;;;;;;8.63;6.53;;;14.30;99.90;;;;;;5084190;28;20060;-64
2022/04/25 13:27:34;;;;;;;7.95;5.68;;;14.30;99.90;;;;;;5083365;28;20021;-67
2022/04/25 13:30:05;;;;;;;9.25;5.47;;;14.40;99.90;;;;;;5069688;28;20111;-64
2022/04/25 13:32:37;;;;;;;8.20;5.85;;;14.30;99.90;;;;;;5068767;28;20187;-65
2022/04/25 13:35:06;;;;;;;10.20;6.60;;;14.30;99.90;;;;;;5069391;28;20032;-65
2022/04/25 13:37:33;;;;;;;7.45;5.88;;;14.40;99.90;;;;;;5066829;28;20450;-63
2022/04/25 13:40:01;;;;;;;9.88;6.53;;;14.40;99.90;;;;;;5068127;28;20028;-63
2022/04/25 13:42:29;;;;;;;9.15;7.72;;;14.30;99.90;;;;;;5068471;28;20021;-66
2022/04/25 13:44:56;;;;;;;12.07;7.85;;;14.50;99.90;;;;;;5061963;28;20016;-64
2022/04/25 13:47:23;;;;;;;8.57;6.57;;;14.50;99.90;;;;;;5068243;28;20379;-65
2022/04/25 13:49:50;;;;;;;10.98;7.15;;;14.60;99.90;;;;;;5068011;28;20096;-67